Time;durP1;ratioP1;P1;durP2;ratioP2;P2;SDS_P1;SDS_P2;PMS_P1;PMS_P2;Temp;Humidity;BMP_temperature;BMP_pressure;BME280_temperature;BME280_humidity;BME280_pressure;Samples;Min_cycle;Max_cycle;Signal;HPM_P1;HPM_P2
2024/02/14 00:01:54;;;;;;;0.93;0.93;;;;;;;6.70;100.00;97244.22;4993836;28;20029;-87
2024/02/14 00:04:21;;;;;;;0.70;0.70;;;;;;;6.75;100.00;97258.13;4998581;28;20029;-88
2024/02/14 00:06:48;;;;;;;0.80;0.80;;;;;;;6.74;100.00;97249.28;5006638;28;20033;-85
2024/02/14 00:09:13;;;;;;;0.90;0.90;;;;;;;6.81;100.00;97257.81;4996719;28;20232;-86
2024/02/14 00:11:39;;;;;;;1.25;0.32;;;;;;;6.81;100.00;97257.81;4990970;28;20104;-86
2024/02/14 00:14:07;;;;;;;0.38;0.38;;;;;;;6.76;100.00;97259.84;4985459;28;20034;-86
2024/02/14 00:16:32;;;;;;;0.00;0.00;;;;;;;6.57;100.00;97246.66;4983474;28;20035;-86
2024/02/14 00:18:58;;;;;;;0.10;0.10;;;;;;;6.60;100.00;97254.47;4989304;28;20474;-86
2024/02/14 00:21:24;;;;;;;0.13;0.13;;;;;;;6.62;100.00;97252.56;4994398;28;20033;-87
2024/02/14 00:23:50;;;;;;;0.30;0.30;;;;;;;6.63;100.00;97251.66;4984519;28;20034;-86
2024/02/14 00:26:16;;;;;;;0.17;0.17;;;;;;;6.58;100.00;97253.69;4993962;28;20481;-86
2024/02/14 00:28:42;;;;;;;0.17;0.17;;;;;;;6.59;100.00;97254.53;4982868;28;20117;-86
2024/02/14 00:31:07;;;;;;;1.45;0.40;;;;;;;6.58;100.00;97256.34;4977113;28;20029;-86
2024/02/14 00:33:33;;;;;;;0.10;0.10;;;;;;;6.64;100.00;97266.66;4990851;28;20125;-86
2024/02/14 00:35:58;;;;;;;0.45;0.40;;;;;;;6.63;100.00;97251.66;4990491;28;20120;-86
2024/02/14 00:38:24;;;;;;;0.20;0.20;;;;;;;6.61;100.00;97255.31;4995603;28;20091;-85
2024/02/14 00:40:50;;;;;;;0.20;0.20;;;;;;;6.64;100.00;97253.38;4981637;28;20041;-85
2024/02/14 00:43:15;;;;;;;0.20;0.20;;;;;;;6.63;100.00;97250.78;4990976;28;20033;-85
2024/02/14 00:45:41;;;;;;;0.25;0.25;;;;;;;6.60;100.00;97251.81;4985882;28;20030;-84
2024/02/14 00:48:07;;;;;;;0.70;0.70;;;;;;;6.69;100.00;97255.78;4985335;28;20032;-86
2024/02/14 00:50:33;;;;;;;0.00;0.00;;;;;;;6.60;100.00;97251.81;4989324;28;20489;-86
2024/02/14 00:52:59;;;;;;;0.28;0.28;;;;;;;6.64;100.00;97252.50;4989174;28;20120;-86
2024/02/14 00:55:25;;;;;;;2.25;0.20;;;;;;;6.65;100.00;97252.41;4994596;28;20112;-84
2024/02/14 00:57:51;;;;;;;0.10;0.10;;;;;;;6.65;100.00;97259.53;5007030;28;20076;-87
2024/02/14 01:00:17;;;;;;;0.32;0.28;;;;;;;6.57;100.00;97257.28;4988910;28;20034;-85
2024/02/14 01:02:43;;;;;;;0.28;0.28;;;;;;;6.66;100.00;97262.13;4979789;28;20115;-85
2024/02/14 01:05:09;;;;;;;0.10;0.10;;;;;;;6.71;100.00;97260.06;4995128;28;20042;-84
2024/02/14 01:07:35;;;;;;;3.08;0.73;;;;;;;6.68;100.00;97260.22;4984705;28;20038;-85
2024/02/14 01:10:01;;;;;;;5.68;0.43;;;;;;;6.68;100.00;97256.72;4979189;28;20038;-85
2024/02/14 01:12:26;;;;;;;1.65;0.63;;;;;;;6.71;100.00;97267.19;4983165;28;20494;-86
2024/02/14 01:14:52;;;;;;;0.22;0.22;;;;;;;6.78;100.00;97269.47;4981505;28;20044;-84
2024/02/14 01:17:18;;;;;;;0.20;0.20;;;;;;;6.82;100.00;97276.34;4985191;28;20034;-84
2024/02/14 01:19:43;;;;;;;0.10;0.10;;;;;;;6.70;100.00;97262.81;4993111;28;20504;-85
2024/02/14 01:22:09;;;;;;;0.20;0.20;;;;;;;6.68;100.00;97265.53;4985002;28;20497;-85
2024/02/14 01:24:35;;;;;;;0.10;0.10;;;;;;;6.69;100.00;97271.72;4981185;28;20029;-85
2024/02/14 01:27:01;;;;;;;0.30;0.30;;;;;;;6.68;100.00;97264.69;4995630;28;20033;-84
2024/02/14 01:29:26;;;;;;;0.10;0.10;;;;;;;6.67;100.00;97262.97;4984062;28;20026;-84
2024/02/14 01:31:52;;;;;;;0.10;0.10;;;;;;;6.63;100.00;97267.59;4976521;28;20061;-85
2024/02/14 01:34:18;;;;;;;0.20;0.20;;;;;;;6.60;100.00;97259.78;4973891;28;20096;-85
2024/02/14 01:36:43;;;;;;;0.52;0.50;;;;;;;6.66;100.00;97267.44;5006268;28;20034;-86
2024/02/14 01:39:11;;;;;;;0.35;0.30;;;;;;;6.66;100.00;97261.25;4982907;28;20527;-85
2024/02/14 01:41:46;;;;;;;1.27;1.17;;;;;;;6.65;100.00;97260.38;4991583;28;20448;-85
2024/02/14 01:44:12;;;;;;;0.17;0.17;;;;;;;6.58;100.00;97256.34;4981613;28;20141;-85
2024/02/14 01:46:38;;;;;;;0.43;0.43;;;;;;;6.61;100.00;97264.16;5013169;28;20030;-84
2024/02/14 01:49:04;;;;;;;2.85;0.60;;;;;;;6.63;100.00;97266.72;4991512;28;20026;-85
2024/02/14 01:51:30;;;;;;;0.50;0.50;;;;;;;6.58;100.00;97264.31;4996332;28;20141;-84
2024/02/14 01:53:56;;;;;;;2.08;1.50;;;;;;;6.55;100.00;97273.28;4981823;28;20109;-84
2024/02/14 01:56:21;;;;;;;2.70;1.17;;;;;;;6.56;100.00;97266.16;4988090;28;20023;-84
2024/02/14 01:58:47;;;;;;;0.80;0.68;;;;;;;6.51;100.00;97260.25;4985036;28;20027;-86
2024/02/14 02:01:13;;;;;;;0.88;0.88;;;;;;;6.54;100.00;97273.38;5010669;28;20029;-85
2024/02/14 02:03:38;;;;;;;0.45;0.45;;;;;;;6.54;100.00;97270.72;4986487;28;20569;-85
2024/02/14 02:06:05;;;;;;;0.50;0.50;;;;;;;6.59;100.00;97267.81;4977515;28;20418;-85
2024/02/14 02:08:32;;;;;;;0.28;0.28;;;;;;;6.60;100.00;97274.84;4982880;28;20104;-85
2024/02/14 02:10:58;;;;;;;0.15;0.15;;;;;;;6.58;100.00;97277.59;4992511;28;20044;-85
2024/02/14 02:13:25;;;;;;;1.23;1.13;;;;;;;6.60;100.00;97278.38;4990321;28;20041;-86
2024/02/14 02:15:53;;;;;;;1.20;0.70;;;;;;;6.56;100.00;97271.47;4976826;28;20030;-84
2024/02/14 02:18:19;;;;;;;0.20;0.20;;;;;;;6.48;100.00;97269.22;4986095;28;20364;-85
2024/02/14 02:20:45;;;;;;;0.30;0.30;;;;;;;6.56;100.00;97279.44;5012781;28;20129;-86
2024/02/14 02:23:14;;;;;;;0.20;0.20;;;;;;;6.60;100.00;97289.00;4995961;28;20033;-86
2024/02/14 02:25:44;;;;;;;1.35;0.75;;;;;;;6.59;100.00;97286.41;4984675;28;20081;-86
2024/02/14 02:28:09;;;;;;;0.20;0.20;;;;;;;6.60;100.00;97291.66;4995280;28;20018;-85
2024/02/14 02:30:36;;;;;;;1.23;0.88;;;;;;;6.56;100.00;97287.44;4990279;28;20025;-84
2024/02/14 02:33:03;;;;;;;0.20;0.20;;;;;;;6.53;100.00;97311.50;4988636;28;20037;-84
2024/02/14 02:35:28;;;;;;;0.38;0.38;;;;;;;6.52;100.00;97302.66;5010089;28;20037;-86
2024/02/14 02:37:54;;;;;;;0.55;0.55;;;;;;;6.39;100.00;97287.41;4997034;28;20030;-85
2024/02/14 02:40:21;;;;;;;1.80;1.42;;;;;;;6.37;100.00;97303.41;4989659;28;20026;-85
2024/02/14 02:42:47;;;;;;;0.77;0.50;;;;;;;6.33;100.00;97306.31;4982082;28;20030;-85
2024/02/14 02:45:13;;;;;;;0.35;0.35;;;;;;;6.31;100.00;97306.38;4984355;28;20041;-86
2024/02/14 02:47:39;;;;;;;5.78;1.75;;;;;;;6.30;100.00;97309.13;4986931;28;20408;-84
2024/02/14 02:50:06;;;;;;;0.15;0.15;;;;;;;6.35;100.00;97320.38;4981198;28;20165;-85
2024/02/14 02:52:31;;;;;;;0.50;0.38;;;;;;;6.34;100.00;97314.19;4998074;28;20508;-86
2024/02/14 02:54:57;;;;;;;0.10;0.10;;;;;;;6.40;100.00;97319.19;4984216;28;20117;-83
2024/02/14 02:57:23;;;;;;;0.38;0.22;;;;;;;6.41;100.00;97322.72;4980051;28;20053;-85
2024/02/14 02:59:49;;;;;;;0.40;0.40;;;;;;;6.37;100.00;97316.69;4995683;28;20434;-86
2024/02/14 03:02:15;;;;;;;0.17;0.17;;;;;;;6.30;100.00;97315.31;4995043;28;20073;-85
2024/02/14 03:04:41;;;;;;;0.10;0.10;;;;;;;6.29;100.00;97325.97;5008870;28;20026;-84
2024/02/14 03:07:08;;;;;;;0.30;0.30;;;;;;;6.25;100.00;97319.09;5002903;28;20026;-84
2024/02/14 03:09:35;;;;;;;1.23;1.13;;;;;;;6.35;100.00;97328.34;4990879;28;20025;-83
2024/02/14 03:12:03;;;;;;;5.78;1.17;;;;;;;6.39;100.00;97327.25;4981756;28;20026;-82
2024/02/14 03:14:32;;;;;;;0.90;0.77;;;;;;;6.48;100.00;97340.09;4986072;28;20029;-85
2024/02/14 03:17:02;;;;;;;1.13;0.50;;;;;;;6.52;100.00;97350.47;4985759;28;20030;-86
2024/02/14 03:19:27;;;;;;;0.25;0.25;;;;;;;6.50;100.00;97346.19;4994704;28;20472;-85
2024/02/14 03:21:56;;;;;;;0.50;0.50;;;;;;;6.54;100.00;97353.06;4980045;28;20041;-86
2024/02/14 03:24:27;;;;;;;0.50;0.50;;;;;;;6.56;100.00;97345.88;4991673;28;20088;-84
2024/02/14 03:26:53;;;;;;;1.23;0.65;;;;;;;6.54;100.00;97348.63;4992029;28;20472;-85
2024/02/14 03:29:20;;;;;;;0.20;0.20;;;;;;;6.54;100.00;97358.38;4992004;28;20114;-84
2024/02/14 03:31:46;;;;;;;1.05;1.00;;;;;;;6.45;100.00;97361.50;5000041;28;20034;-85
2024/02/14 03:34:12;;;;;;;0.73;0.50;;;;;;;6.46;100.00;97360.56;4989296;28;20029;-83
2024/02/14 03:36:39;;;;;;;1.58;0.95;;;;;;;6.47;100.00;97365.78;5003179;28;20049;-85
2024/02/14 03:39:05;;;;;;;1.35;0.55;;;;;;;6.60;100.00;97375.81;4986851;28;20026;-86
2024/02/14 03:41:31;;;;;;;3.55;0.70;;;;;;;6.59;100.00;97377.59;4994022;28;20029;-86
2024/02/14 03:44:00;;;;;;;1.55;1.38;;;;;;;6.65;100.00;97377.31;4975638;28;20030;-85
2024/02/14 03:46:30;;;;;;;1.48;1.38;;;;;;;6.63;100.00;97367.69;5002297;28;20040;-87
2024/02/14 03:48:55;;;;;;;1.80;1.23;;;;;;;6.62;100.00;97380.13;4984287;28;20552;-86
2024/02/14 03:51:23;;;;;;;1.90;1.67;;;;;;;6.57;100.00;97383.94;4979483;28;20038;-85
2024/02/14 03:53:49;;;;;;;1.45;1.33;;;;;;;6.51;100.00;97385.09;4975530;28;20038;-87
2024/02/14 03:56:16;;;;;;;1.90;1.50;;;;;;;6.50;100.00;97384.25;4981158;28;20026;-85
2024/02/14 03:58:42;;;;;;;0.95;0.82;;;;;;;6.58;100.00;97389.19;5001190;28;20022;-85
2024/02/14 04:01:08;;;;;;;3.60;2.28;;;;;;;6.59;100.00;97392.69;4983090;28;20092;-84
2024/02/14 04:03:33;;;;;;;1.20;1.13;;;;;;;6.59;100.00;97398.00;4990762;28;20053;-87
2024/02/14 04:06:00;;;;;;;6.15;0.93;;;;;;;6.64;100.00;97401.31;4990319;28;20514;-87
2024/02/14 04:08:26;;;;;;;1.38;1.27;;;;;;;6.61;100.00;97407.66;4985182;28;20026;-86
2024/02/14 04:10:54;;;;;;;11.77;2.70;;;;;;;6.63;100.00;97405.75;4987793;28;20041;-86
2024/02/14 04:13:20;;;;;;;0.90;0.90;;;;;;;6.59;100.00;97403.31;4977071;28;20030;-84
2024/02/14 04:15:46;;;;;;;3.25;1.77;;;;;;;6.54;100.00;97400.91;4974068;28;20132;-84
2024/02/14 04:18:14;;;;;;;0.43;0.40;;;;;;;6.51;100.00;97403.72;4991307;28;20034;-85
2024/02/14 04:20:41;;;;;;;1.02;0.98;;;;;;;6.37;100.00;97409.66;4982285;28;20037;-85
2024/02/14 04:23:07;;;;;;;0.60;0.60;;;;;;;6.33;100.00;97413.41;4982229;28;20026;-85
2024/02/14 04:25:33;;;;;;;2.03;1.85;;;;;;;6.34;100.00;97414.25;4990224;28;20530;-86
2024/02/14 04:28:01;;;;;;;1.20;1.10;;;;;;;6.40;100.00;97420.16;4979495;28;20041;-85
2024/02/14 04:30:26;;;;;;;1.42;1.33;;;;;;;6.38;100.00;97413.19;4990536;28;20038;-85
2024/02/14 04:32:52;;;;;;;0.63;0.63;;;;;;;6.41;100.00;97426.31;4978653;28;20486;-86
2024/02/14 04:35:20;;;;;;;0.20;0.20;;;;;;;6.37;100.00;97424.72;4985949;28;20108;-82
2024/02/14 04:37:49;;;;;;;5.00;2.17;;;;;;;6.44;100.00;97427.03;4985156;28;20489;-85
2024/02/14 04:40:15;;;;;;;2.83;1.05;;;;;;;6.44;100.00;97423.53;4991487;28;20061;-86
2024/02/14 04:42:41;;;;;;;1.83;1.48;;;;;;;6.44;100.00;97420.88;4983754;28;20144;-86
2024/02/14 04:45:08;;;;;;;1.77;1.48;;;;;;;6.48;100.00;97430.41;5007494;28;20037;-84
2024/02/14 04:47:33;;;;;;;1.50;1.25;;;;;;;6.41;100.00;97432.50;4975311;28;20089;-85
2024/02/14 04:50:00;;;;;;;0.82;0.75;;;;;;;6.35;100.00;97422.16;4983757;28;20031;-86
2024/02/14 04:52:26;;;;;;;3.85;1.13;;;;;;;6.25;100.00;97425.31;4983803;28;20065;-86
2024/02/14 04:54:52;;;;;;;0.32;0.32;;;;;;;6.20;100.00;97419.38;5000055;28;20026;-86
2024/02/14 04:57:19;;;;;;;0.20;0.20;;;;;;;6.32;100.00;97432.94;4998047;28;20022;-88
2024/02/14 04:59:45;;;;;;;0.98;0.82;;;;;;;6.31;100.00;97436.50;4990694;28;20118;-77
2024/02/14 05:02:11;;;;;;;0.10;0.10;;;;;;;6.29;100.00;97437.53;5004565;28;20073;-77
2024/02/14 05:04:39;;;;;;;1.02;0.52;;;;;;;6.19;100.00;97433.56;4998694;28;20117;-78
2024/02/14 05:07:05;;;;;;;0.95;0.40;;;;;;;6.22;100.00;97439.59;4980475;28;20498;-78
2024/02/14 05:09:30;;;;;;;0.77;0.65;;;;;;;6.29;100.00;97438.41;5000924;28;20026;-76
2024/02/14 05:11:56;;;;;;;3.20;1.33;;;;;;;6.29;100.00;97445.50;4994232;28;20061;-76
2024/02/14 05:14:22;;;;;;;1.52;1.33;;;;;;;6.33;100.00;97445.28;5007095;28;20490;-77
2024/02/14 05:16:47;;;;;;;24.98;2.47;;;;;;;6.35;100.00;97458.50;4977490;28;20528;-76
2024/02/14 05:19:13;;;;;;;7.00;4.18;;;;;;;6.27;100.00;97455.34;4986037;28;20026;-76
2024/02/14 05:21:39;;;;;;;4.63;2.63;;;;;;;6.34;100.00;97459.41;5016058;28;20093;-72
2024/02/14 05:24:06;;;;;;;0.90;0.85;;;;;;;6.31;100.00;97456.91;4998498;28;20398;-79
2024/02/14 05:26:32;;;;;;;0.25;0.22;;;;;;;6.39;100.00;97460.06;4986392;28;20040;-80
2024/02/14 05:28:58;;;;;;;2.25;0.93;;;;;;;6.39;100.00;97465.38;4997552;28;20022;-78
2024/02/14 05:31:24;;;;;;;1.08;0.95;;;;;;;6.36;100.00;97462.88;4997802;28;20436;-80
2024/02/14 05:33:51;;;;;;;0.35;0.35;;;;;;;6.22;100.00;97463.50;5014251;28;20472;-79
2024/02/14 05:36:17;;;;;;;0.40;0.40;;;;;;;6.22;100.00;97462.63;4997322;28;20029;-80
2024/02/14 05:38:43;;;;;;;0.88;0.82;;;;;;;6.26;100.00;97466.88;4991698;28;20566;-79
2024/02/14 05:41:10;;;;;;;0.68;0.50;;;;;;;6.29;100.00;97475.56;5004217;28;20037;-78
2024/02/14 05:43:36;;;;;;;0.47;0.47;;;;;;;6.32;100.00;97488.72;5007775;28;20026;-79
2024/02/14 05:46:01;;;;;;;0.30;0.30;;;;;;;6.35;100.00;97490.38;4994150;28;20092;-80
2024/02/14 05:48:27;;;;;;;1.15;1.05;;;;;;;6.31;100.00;97492.28;4994171;28;20042;-80
2024/02/14 05:50:52;;;;;;;1.25;1.17;;;;;;;6.28;100.00;97499.53;4977679;28;20038;-79
2024/02/14 05:53:20;;;;;;;1.42;0.90;;;;;;;6.29;100.00;97507.44;4977737;28;20125;-78
2024/02/14 05:55:45;;;;;;;1.23;1.02;;;;;;;6.31;100.00;97510.00;4977648;28;20038;-80
2024/02/14 05:58:11;;;;;;;0.28;0.28;;;;;;;6.33;100.00;97511.69;4995698;28;20030;-78
2024/02/14 06:00:37;;;;;;;1.80;1.10;;;;;;;6.33;100.00;97510.81;4996634;28;20173;-79
2024/02/14 06:03:05;;;;;;;0.80;0.80;;;;;;;6.27;100.00;97508.44;4996805;28;20053;-80
2024/02/14 06:05:30;;;;;;;3.33;1.45;;;;;;;6.25;100.00;97515.59;4992534;28;20090;-81
2024/02/14 06:07:56;;;;;;;0.98;0.93;;;;;;;6.21;100.00;97522.88;4993648;28;20027;-77
2024/02/14 06:10:22;;;;;;;1.80;0.55;;;;;;;6.15;100.00;97515.19;4980263;28;20036;-80
2024/02/14 06:12:49;;;;;;;5.30;1.63;;;;;;;6.22;100.00;97531.69;5012848;28;20159;-81
2024/02/14 06:15:14;;;;;;;1.55;1.17;;;;;;;6.17;100.00;97529.25;5013191;28;20026;-78
2024/02/14 06:17:40;;;;;;;0.85;0.85;;;;;;;6.19;100.00;97532.69;5003360;28;20030;-79
2024/02/14 06:20:07;;;;;;;0.57;0.50;;;;;;;6.22;100.00;97544.97;4977010;28;20122;-78
2024/02/14 06:22:33;;;;;;;0.30;0.30;;;;;;;6.21;100.00;97546.78;4977014;28;20034;-79
2024/02/14 06:25:04;;;;;;;0.30;0.30;;;;;;;6.15;100.00;97547.06;4977003;28;20177;-79
2024/02/14 06:27:30;;;;;;;1.27;0.70;;;;;;;6.10;100.00;97548.16;4980786;28;20111;-79
2024/02/14 06:29:56;;;;;;;2.60;1.13;;;;;;;5.99;100.00;97553.97;4995061;28;20029;-79
2024/02/14 06:32:22;;;;;;;0.45;0.45;;;;;;;5.88;100.00;97554.41;5014251;28;20022;-79
2024/02/14 06:34:48;;;;;;;0.52;0.50;;;;;;;5.83;100.00;97556.38;4996297;28;20029;-79
2024/02/14 06:37:13;;;;;;;0.20;0.20;;;;;;;5.82;100.00;97559.94;5014000;28;20017;-78
2024/02/14 06:39:39;;;;;;;0.57;0.57;;;;;;;5.89;100.00;97560.59;4996130;28;20503;-79
2024/02/14 06:42:04;;;;;;;0.22;0.22;;;;;;;5.83;100.00;97560.81;4996129;28;20032;-78
2024/02/14 06:44:30;;;;;;;0.15;0.15;;;;;;;5.91;100.00;97564.91;4996177;28;20036;-80
2024/02/14 06:46:56;;;;;;;0.93;0.52;;;;;;;6.02;100.00;97564.44;4996039;28;20092;-79
2024/02/14 06:49:21;;;;;;;1.33;1.23;;;;;;;5.97;100.00;97561.97;4996110;28;20057;-78
2024/02/14 06:51:47;;;;;;;0.85;0.65;;;;;;;6.01;100.00;97565.38;4995961;28;20033;-78
2024/02/14 06:54:13;;;;;;;0.55;0.55;;;;;;;6.09;100.00;97562.38;5013823;28;20033;-79
2024/02/14 06:56:38;;;;;;;0.30;0.30;;;;;;;6.16;100.00;97571.78;4996076;28;20057;-78
2024/02/14 06:59:04;;;;;;;0.15;0.15;;;;;;;6.15;100.00;97567.44;4995922;28;20491;-78
2024/02/14 07:01:30;;;;;;;0.40;0.40;;;;;;;6.18;100.00;97561.97;5012558;28;20469;-79
2024/02/14 07:03:56;;;;;;;0.35;0.35;;;;;;;6.25;100.00;97574.91;4995756;28;20049;-78
2024/02/14 07:06:22;;;;;;;4.68;1.17;;;;;;;6.23;100.00;97566.16;4996010;28;20022;-81
2024/02/14 07:08:48;;;;;;;0.40;0.40;;;;;;;6.38;100.00;97577.88;4996829;28;20022;-78
2024/02/14 07:11:15;;;;;;;0.75;0.40;;;;;;;6.36;100.00;97572.66;4996670;28;20026;-79
2024/02/14 07:13:41;;;;;;;0.22;0.22;;;;;;;6.50;100.00;97586.16;4995859;28;20037;-81
2024/02/14 07:16:07;;;;;;;1.25;1.15;;;;;;;6.63;100.00;97590.91;5012255;28;20022;-78
2024/02/14 07:18:34;;;;;;;1.27;0.80;;;;;;;6.71;100.00;97604.72;4995445;28;20033;-78
2024/02/14 07:20:59;;;;;;;0.40;0.40;;;;;;;6.78;100.00;97596.41;5011844;28;20021;-78
2024/02/14 07:23:26;;;;;;;1.27;1.00;;;;;;;6.86;100.00;97604.03;4995454;28;20026;-78
2024/02/14 07:25:52;;;;;;;0.38;0.38;;;;;;;6.88;100.00;97604.81;4995513;28;20021;-77
2024/02/14 07:28:17;;;;;;;0.52;0.35;;;;;;;6.92;100.00;97609.91;5012184;28;20083;-78
2024/02/14 07:30:43;;;;;;;1.33;0.88;;;;;;;7.00;100.00;97599.78;5011801;28;20565;-79
2024/02/14 07:33:09;;;;;;;0.30;0.20;;;;;;;7.07;100.00;97603.03;4979966;28;20026;-79
2024/02/14 07:35:37;;;;;;;0.82;0.60;;;;;;;7.12;100.00;97605.44;4975840;28;20026;-80
2024/02/14 07:38:03;;;;;;;1.55;1.13;;;;;;;7.08;100.00;97602.94;4975502;28;20173;-79
2024/02/14 07:40:30;;;;;;;0.52;0.52;;;;;;;7.08;100.00;97605.59;4975402;28;20113;-77
2024/02/14 07:42:57;;;;;;;0.28;0.20;;;;;;;7.17;100.00;97614.09;4976094;28;20486;-79
2024/02/14 07:45:22;;;;;;;0.20;0.20;;;;;;;7.14;100.00;97616.91;4975719;28;20109;-78
2024/02/14 07:47:51;;;;;;;0.70;0.70;;;;;;;7.16;100.00;97620.34;4975516;28;20161;-77
2024/02/14 07:50:17;;;;;;;1.20;0.32;;;;;;;7.13;100.00;97624.00;4975515;28;20414;-79
2024/02/14 07:52:46;;;;;;;0.38;0.30;;;;;;;7.20;100.00;97624.59;4975507;28;20045;-79
2024/02/14 07:55:12;;;;;;;0.52;0.52;;;;;;;7.29;100.00;97629.47;4975619;28;20121;-78
2024/02/14 07:57:39;;;;;;;1.15;1.10;;;;;;;7.36;100.00;97625.56;4992168;28;20030;-79
2024/02/14 08:00:08;;;;;;;0.75;0.50;;;;;;;7.42;100.00;97617.28;4975213;28;20030;-78
2024/02/14 08:02:34;;;;;;;2.40;0.98;;;;;;;7.51;100.00;97631.00;4975556;28;20081;-78
2024/02/14 08:05:00;;;;;;;0.90;0.65;;;;;;;7.53;100.00;97633.63;4975091;28;20503;-77
2024/02/14 08:07:25;;;;;;;0.82;0.68;;;;;;;7.59;100.00;97631.53;4975015;28;20038;-78
2024/02/14 08:09:51;;;;;;;0.57;0.57;;;;;;;7.57;100.00;97633.38;4991494;28;20037;-78
2024/02/14 08:12:17;;;;;;;1.08;0.73;;;;;;;7.50;100.00;97620.47;4975029;28;20030;-77
2024/02/14 08:14:42;;;;;;;0.75;0.40;;;;;;;7.59;100.00;97636.84;4991309;28;20109;-78
2024/02/14 08:17:08;;;;;;;2.40;0.85;;;;;;;7.66;100.00;97631.22;4975049;28;20030;-78
2024/02/14 08:19:34;;;;;;;0.40;0.40;;;;;;;7.83;100.00;97631.25;4975145;28;20057;-77
2024/02/14 08:22:00;;;;;;;1.55;0.50;;;;;;;8.08;100.00;97634.41;4991015;28;20089;-77
2024/02/14 08:24:27;;;;;;;3.40;1.85;;;;;;;8.36;100.00;97636.56;4992017;28;20041;-78
2024/02/14 08:26:53;;;;;;;0.20;0.20;;;;;;;8.60;100.00;97645.94;4975244;28;20132;-78
2024/02/14 08:29:19;;;;;;;1.33;0.35;;;;;;;8.50;100.00;97636.69;4992153;28;20067;-77
2024/02/14 08:31:45;;;;;;;0.90;0.30;;;;;;;8.58;100.00;97642.50;4992657;28;20410;-77
2024/02/14 08:34:10;;;;;;;0.38;0.38;;;;;;;8.64;100.00;97636.84;4975246;28;20088;-79
2024/02/14 08:36:40;;;;;;;0.08;0.08;;;;;;;8.56;100.00;97639.91;4975186;28;20483;-80
2024/02/14 08:39:12;;;;;;;0.75;0.47;;;;;;;8.61;100.00;97637.00;4990970;28;20030;-79
2024/02/14 08:41:38;;;;;;;0.57;0.57;;;;;;;8.60;100.00;97638.81;4975302;28;20030;-79
2024/02/14 08:44:04;;;;;;;0.43;0.40;;;;;;;8.52;100.00;97646.31;4974899;28;20046;-79
2024/02/14 08:46:30;;;;;;;0.35;0.30;;;;;;;8.36;100.00;97657.88;4974966;28;20034;-79
2024/02/14 08:48:56;;;;;;;0.35;0.35;;;;;;;8.34;100.00;97657.94;4974788;28;20165;-79
2024/02/14 08:51:22;;;;;;;0.60;0.50;;;;;;;8.26;100.00;97660.09;4990473;28;20513;-79
2024/02/14 08:53:48;;;;;;;1.65;1.55;;;;;;;8.31;100.00;97657.22;4991028;28;20029;-79
2024/02/14 08:56:14;;;;;;;0.50;0.50;;;;;;;8.32;100.00;97658.97;4974768;28;20030;-79
2024/02/14 08:58:39;;;;;;;0.35;0.35;;;;;;;8.37;100.00;97659.56;4974638;28;20486;-79
2024/02/14 09:01:05;;;;;;;0.70;0.70;;;;;;;8.45;100.00;97668.06;4974685;28;20042;-80
2024/02/14 09:03:31;;;;;;;2.17;1.17;;;;;;;8.26;100.00;97646.78;4990746;28;20055;-79
2024/02/14 09:06:00;;;;;;;0.77;0.77;;;;;;;8.41;100.00;97669.16;4990685;28;20022;-79
2024/02/14 09:08:25;;;;;;;0.73;0.20;;;;;;;8.54;100.00;97664.91;4990570;28;20093;-80
2024/02/14 09:10:51;;;;;;;0.25;0.25;;;;;;;8.73;100.00;97671.03;4974573;28;20462;-79
2024/02/14 09:13:17;;;;;;;0.15;0.15;;;;;;;8.83;100.00;97674.91;4974477;28;20030;-77
2024/02/14 09:15:43;;;;;;;5.75;0.73;;;;;;;8.76;100.00;97678.00;4990916;28;20030;-78
2024/02/14 09:18:09;;;;;;;1.17;0.47;;;;;;;8.80;100.00;97685.72;4990736;28;20030;-77
2024/02/14 09:20:34;;;;;;;0.73;0.60;;;;;;;8.71;100.00;97692.41;4974481;28;20623;-77
2024/02/14 09:23:00;;;;;;;1.45;0.95;;;;;;;8.48;100.00;97689.22;4974671;28;20103;-77
2024/02/14 09:25:26;;;;;;;1.17;0.95;;;;;;;8.37;100.00;97697.75;4985008;28;20140;-79
2024/02/14 09:27:51;;;;;;;2.53;0.95;;;;;;;8.27;100.00;97701.81;5000283;28;20030;-77
2024/02/14 09:30:17;;;;;;;1.05;0.50;;;;;;;8.28;100.00;97698.22;4973741;28;20102;-78
2024/02/14 09:32:47;;;;;;;0.77;0.70;;;;;;;8.46;100.00;97710.59;4981981;28;20033;-77
2024/02/14 09:35:13;;;;;;;0.47;0.47;;;;;;;8.50;100.00;97708.66;4993785;28;20054;-77
2024/02/14 09:37:39;;;;;;;0.15;0.15;;;;;;;8.49;100.00;97706.94;4993301;28;20061;-77
2024/02/14 09:40:06;;;;;;;0.65;0.55;;;;;;;8.31;100.00;97702.53;4997271;28;20038;-77
2024/02/14 09:42:41;;;;;;;0.93;0.47;;;;;;;8.18;100.00;97700.44;4994860;28;20026;-76
2024/02/14 09:45:08;;;;;;;0.17;0.17;;;;;;;8.15;100.00;97703.25;4989105;28;20088;-77
2024/02/14 09:47:34;;;;;;;0.38;0.38;;;;;;;8.28;100.00;97706.22;5005382;28;20042;-75
2024/02/14 09:50:02;;;;;;;0.60;0.60;;;;;;;8.24;100.00;97690.44;4989368;28;20470;-77
2024/02/14 09:52:28;;;;;;;0.55;0.55;;;;;;;8.33;100.00;97696.22;4989172;28;20026;-76
2024/02/14 09:54:54;;;;;;;0.88;0.73;;;;;;;8.26;100.00;97705.41;5001151;28;20039;-76
2024/02/14 09:57:20;;;;;;;1.48;1.00;;;;;;;8.08;100.00;97693.88;4988939;28;20121;-78
2024/02/14 09:59:46;;;;;;;0.20;0.20;;;;;;;8.08;100.00;97712.53;4993685;28;20093;-82
2024/02/14 10:02:12;;;;;;;0.68;0.63;;;;;;;7.85;100.00;97696.78;4981938;28;20066;-80
2024/02/14 10:04:39;;;;;;;1.27;0.63;;;;;;;7.96;100.00;97706.94;4993352;28;20030;-83
2024/02/14 10:07:04;;;;;;;1.63;1.33;;;;;;;8.02;100.00;97691.50;4977303;28;20052;-79
2024/02/14 10:09:31;;;;;;;0.98;0.60;;;;;;;8.03;100.00;97700.34;4993451;28;20469;-79
2024/02/14 10:11:57;;;;;;;4.88;1.15;;;;;;;8.10;100.00;97707.97;4977527;28;20124;-80
2024/02/14 10:14:42;;;;;;;0.32;0.32;;;;;;;8.23;100.00;97702.03;4993751;28;20028;-79
2024/02/14 10:17:09;;;;;;;0.20;0.20;;;;;;;8.18;100.00;97695.13;4995094;28;20030;-82
2024/02/14 10:19:35;;;;;;;6.95;2.95;;;;;;;8.11;100.00;97688.41;4977517;28;20425;-80
2024/02/14 10:22:05;;;;;;;0.10;0.10;;;;;;;8.12;100.00;97698.09;4977742;28;20034;-80
2024/02/14 10:24:31;;;;;;;2.03;0.43;;;;;;;8.15;100.00;97686.44;4993278;28;20037;-78
2024/02/14 10:26:59;;;;;;;0.60;0.60;;;;;;;8.33;100.00;97696.22;4993764;28;20463;-79
2024/02/14 10:29:28;;;;;;;5.50;2.50;;;;;;;8.39;100.00;97684.38;4977290;28;20034;-80
2024/02/14 10:31:53;;;;;;;0.77;0.77;;;;;;;8.65;100.00;97691.88;4977303;28;20532;-80
2024/02/14 10:34:24;;;;;;;1.40;1.05;;;;;;;8.70;100.00;97681.84;4977474;28;20057;-79
2024/02/14 10:36:52;;;;;;;1.08;1.00;;;;;;;8.63;100.00;97680.44;4977108;28;20030;-78
2024/02/14 10:39:19;;;;;;;1.33;0.98;;;;;;;8.51;100.00;97670.41;4977025;28;20022;-80
2024/02/14 10:41:44;;;;;;;3.00;1.60;;;;;;;8.50;100.00;97677.53;4976918;28;20429;-80
2024/02/14 10:44:11;;;;;;;2.55;1.33;;;;;;;8.37;100.00;97672.91;4977791;28;20121;-79
2024/02/14 10:46:46;;;;;;;0.63;0.63;;;;;;;8.39;100.00;97661.25;4977168;28;20061;-80
2024/02/14 10:49:12;;;;;;;1.65;0.95;;;;;;;8.59;100.00;97668.19;4977053;28;20030;-79
2024/02/14 10:51:38;;;;;;;7.10;1.50;;;;;;;8.70;100.00;97669.34;4991457;28;20037;-79
2024/02/14 10:54:11;;;;;;;4.75;1.27;;;;;;;8.81;100.00;97666.13;4986151;28;20038;-80
2024/02/14 10:56:44;;;;;;;1.35;0.70;;;;;;;8.72;100.00;97663.94;4976808;28;20034;-79
2024/02/14 10:59:11;;;;;;;0.40;0.40;;;;;;;8.67;100.00;97658.00;4987827;28;20089;-78
2024/02/14 11:01:37;;;;;;;1.25;0.98;;;;;;;8.71;100.00;97659.56;4996383;28;20025;-78
2024/02/14 11:04:04;;;;;;;0.90;0.82;;;;;;;8.75;100.00;97665.59;4995821;28;20104;-79
2024/02/14 11:06:30;;;;;;;0.30;0.30;;;;;;;8.73;100.00;97673.69;4996665;28;20040;-79
2024/02/14 11:09:07;;;;;;;2.78;1.42;;;;;;;8.67;100.00;97668.66;5012597;28;20029;-79
2024/02/14 11:11:33;;;;;;;0.85;0.70;;;;;;;8.68;100.00;97675.72;5012598;28;20557;-78
2024/02/14 11:13:59;;;;;;;1.80;1.23;;;;;;;8.70;100.00;97671.19;4988144;28;20120;-79
2024/02/14 11:16:29;;;;;;;1.42;0.98;;;;;;;8.61;100.00;97669.00;4975825;28;20034;-78
2024/02/14 11:19:12;;;;;;;1.13;1.02;;;;;;;8.59;100.00;97676.19;4992603;28;20030;-80
2024/02/14 11:21:46;;;;;;;1.17;1.08;;;;;;;8.41;100.00;97674.47;4992582;28;20507;-79
2024/02/14 11:24:27;;;;;;;1.45;0.85;;;;;;;8.21;100.00;97674.59;4976319;28;20037;-79
2024/02/14 11:27:03;;;;;;;2.30;1.35;;;;;;;8.13;100.00;97689.16;4976459;28;20037;-79
2024/02/14 11:29:30;;;;;;;0.35;0.35;;;;;;;8.08;100.00;97680.56;4992803;28;20044;-80
2024/02/14 11:32:00;;;;;;;0.93;0.80;;;;;;;8.04;100.00;97670.97;4976826;28;20509;-80